createdAt,value
2018-09-08T00:00:34.089Z,14.22
2018-09-08T00:03:03.530Z,14.18
2018-09-08T00:05:32.906Z,14.14
2018-09-08T00:08:01.298Z,14.09
2018-09-08T00:10:29.761Z,14.04
2018-09-08T00:12:58.175Z,13.99
2018-09-08T00:15:31.799Z,13.94
2018-09-08T00:18:05.669Z,13.92
2018-09-08T00:20:39.429Z,13.87
2018-09-08T00:23:13.156Z,13.83
2018-09-08T00:25:46.860Z,13.80
2018-09-08T00:29:24.302Z,13.76
2018-09-08T00:31:52.694Z,13.70
2018-09-08T00:34:21.082Z,13.66
2018-09-08T00:36:49.439Z,13.61
2018-09-08T00:39:17.826Z,13.57
2018-09-08T00:41:46.187Z,13.55
2018-09-08T00:44:14.573Z,13.50
2018-09-08T00:46:42.929Z,13.48
2018-09-08T00:49:11.315Z,13.44
2018-09-08T00:51:39.671Z,13.40
2018-09-08T00:54:08.202Z,13.36
2018-09-08T00:56:36.568Z,13.34
2018-09-08T00:59:06.079Z,13.31
2018-09-08T01:01:35.974Z,13.28
2018-09-08T01:04:04.486Z,13.25
2018-09-08T01:06:33.036Z,13.19
2018-09-08T01:09:01.447Z,13.17
2018-09-08T01:11:29.806Z,13.13
2018-09-08T01:13:58.186Z,13.10
2018-09-08T01:16:26.549Z,13.07
2018-09-08T01:18:54.928Z,13.04
2018-09-08T01:21:23.317Z,13.02
2018-09-08T01:23:52.847Z,13.00
2018-09-08T01:26:21.913Z,12.98
2018-09-08T01:28:51.343Z,12.96
2018-09-08T01:31:20.206Z,12.94
2018-09-08T01:33:48.608Z,12.93
2018-09-08T01:36:16.974Z,12.92
2018-09-08T01:38:45.374Z,12.92
2018-09-08T01:41:13.762Z,12.91
2018-09-08T01:43:42.162Z,12.92
2018-09-08T01:46:10.530Z,12.92
2018-09-08T01:48:38.991Z,12.92
2018-09-08T01:51:07.546Z,12.91
2018-09-08T01:53:35.933Z,12.90
2018-09-08T01:56:04.319Z,12.88
2018-09-08T01:58:32.718Z,12.85
2018-09-08T02:01:01.099Z,12.82
2018-09-08T02:03:29.495Z,12.78
2018-09-08T02:05:57.861Z,12.75
2018-09-08T02:08:26.246Z,12.72
2018-09-08T02:10:54.621Z,12.69
2018-09-08T02:13:23.042Z,12.66
2018-09-08T02:15:51.410Z,12.64
2018-09-08T02:18:19.985Z,12.60
2018-09-08T02:20:48.373Z,12.57
2018-09-08T02:23:16.791Z,12.54
2018-09-08T02:25:45.158Z,12.52
2018-09-08T02:28:13.526Z,12.49
2018-09-08T02:30:41.920Z,12.45
2018-09-08T02:33:10.293Z,12.42
2018-09-08T02:35:38.686Z,12.41
2018-09-08T02:38:07.070Z,12.37
2018-09-08T02:40:35.457Z,12.34
2018-09-08T02:43:03.821Z,12.30
2018-09-08T02:45:32.213Z,12.28
2018-09-08T02:48:00.587Z,12.24
2018-09-08T02:50:28.370Z,12.21
2018-09-08T02:52:55.694Z,12.18
2018-09-08T02:55:23.037Z,12.15
2018-09-08T02:57:50.355Z,12.11
2018-09-08T03:00:17.690Z,12.07
2018-09-08T03:02:46.753Z,12.01
2018-09-08T03:05:14.139Z,11.96
2018-09-08T03:07:41.442Z,11.91
2018-09-08T03:10:08.774Z,11.86
2018-09-08T03:12:36.090Z,11.81
2018-09-08T03:15:03.427Z,11.78
2018-09-08T03:17:30.738Z,11.75
2018-09-08T03:19:58.079Z,11.74
2018-09-08T03:22:25.394Z,11.73
2018-09-08T03:24:52.722Z,11.70
2018-09-08T03:27:20.054Z,11.69
2018-09-08T03:29:47.403Z,11.67
2018-09-08T03:32:15.027Z,11.67
2018-09-08T03:34:42.509Z,11.68
2018-09-08T03:37:10.154Z,11.70
2018-09-08T03:39:37.634Z,11.74
2018-09-08T03:42:04.945Z,11.78
2018-09-08T03:44:32.549Z,11.84
2018-09-08T03:46:59.979Z,11.89
2018-09-08T03:49:27.309Z,11.95
2018-09-08T03:51:54.627Z,11.99
2018-09-08T03:54:21.971Z,12.05
2018-09-08T03:56:49.287Z,12.08
2018-09-08T03:59:16.631Z,12.12
2018-09-08T04:01:43.942Z,12.14
2018-09-08T04:04:12.339Z,12.17
2018-09-08T04:06:40.715Z,12.18
2018-09-08T04:09:11.030Z,12.20
2018-09-08T04:11:39.781Z,12.20
2018-09-08T04:14:08.671Z,12.21
2018-09-08T04:16:37.099Z,12.20
2018-09-08T04:19:05.874Z,12.20
2018-09-08T04:21:34.285Z,12.19
2018-09-08T04:24:02.692Z,12.20
2018-09-08T04:26:31.081Z,12.20
2018-09-08T04:28:59.451Z,12.20
2018-09-08T04:31:27.874Z,12.20
2018-09-08T04:33:56.251Z,12.21
2018-09-08T04:36:24.634Z,12.21
2018-09-08T04:38:53.008Z,12.22
2018-09-08T04:41:21.394Z,12.22
2018-09-08T04:43:49.770Z,12.23
2018-09-08T04:46:18.193Z,12.24
2018-09-08T04:48:46.894Z,12.28
2018-09-08T04:51:15.282Z,12.30
2018-09-08T04:53:43.641Z,12.33
2018-09-08T04:56:12.038Z,12.34
2018-09-08T04:58:40.405Z,12.36
2018-09-08T05:01:08.797Z,12.39
2018-09-08T05:03:37.170Z,12.41
2018-09-08T05:06:05.564Z,12.42
2018-09-08T05:08:33.934Z,12.46
2018-09-08T05:11:02.359Z,12.49
2018-09-08T05:13:30.727Z,12.52
2018-09-08T05:15:59.123Z,12.56
2018-09-08T05:18:27.489Z,12.61
2018-09-08T05:20:55.911Z,12.64
2018-09-08T05:23:24.275Z,12.68
2018-09-08T05:25:52.667Z,12.72
2018-09-08T05:28:21.046Z,12.76
2018-09-08T05:30:49.455Z,12.80
2018-09-08T05:33:17.864Z,12.85
2018-09-08T05:35:46.261Z,12.91
2018-09-08T05:38:14.631Z,12.96
2018-09-08T05:40:43.027Z,13.02
2018-09-08T05:43:11.398Z,13.08
2018-09-08T05:45:39.795Z,13.13
2018-09-08T05:48:08.153Z,13.19
2018-09-08T05:50:36.544Z,13.25
2018-09-08T05:53:04.905Z,13.30
2018-09-08T05:55:33.294Z,13.35
2018-09-08T05:58:01.811Z,13.39
2018-09-08T06:00:30.205Z,13.43
2018-09-08T06:02:59.202Z,13.49
2018-09-08T06:05:27.642Z,13.52
2018-09-08T06:07:56.010Z,13.56
2018-09-08T06:10:24.400Z,13.62
2018-09-08T06:12:52.790Z,13.67
2018-09-08T06:15:21.189Z,13.73
2018-09-08T06:17:49.584Z,13.77
2018-09-08T06:20:18.074Z,13.82
2018-09-08T06:22:46.494Z,13.88
2018-09-08T06:25:14.866Z,13.94
2018-09-08T06:27:43.264Z,14.00
2018-09-08T06:30:11.645Z,14.05
2018-09-08T06:32:40.047Z,14.11
2018-09-08T06:35:08.486Z,14.18
2018-09-08T06:37:36.874Z,14.24
2018-09-08T06:40:05.290Z,14.29
2018-09-08T06:42:33.685Z,14.36
2018-09-08T06:45:02.137Z,14.44
2018-09-08T06:47:30.466Z,14.52
2018-09-08T06:49:58.858Z,14.60
2018-09-08T06:52:27.255Z,14.67
2018-09-08T06:54:56.610Z,14.75
2018-09-08T06:57:25.017Z,14.83
2018-09-08T06:59:53.395Z,14.93
2018-09-08T07:02:21.773Z,15.01
2018-09-08T07:04:50.167Z,15.10
2018-09-08T07:07:18.537Z,15.21
2018-09-08T07:09:46.935Z,15.29
2018-09-08T07:12:15.302Z,15.38
2018-09-08T07:14:43.742Z,15.44
2018-09-08T07:17:12.118Z,15.52
2018-09-08T07:19:40.517Z,15.61
2018-09-08T07:22:08.910Z,15.68
2018-09-08T07:24:37.302Z,15.74
2018-09-08T07:27:05.761Z,15.82
2018-09-08T07:29:34.226Z,16.05
2018-09-08T07:32:02.686Z,16.28
2018-09-08T07:34:31.171Z,16.42
2018-09-08T07:36:59.615Z,16.59
2018-09-08T07:39:28.019Z,16.61
2018-09-08T07:41:56.399Z,16.59
2018-09-08T07:44:24.799Z,16.60
2018-09-08T07:46:53.171Z,16.61
2018-09-08T07:49:21.589Z,16.63
2018-09-08T07:51:49.966Z,16.64
2018-09-08T07:54:18.358Z,16.64
2018-09-08T07:56:46.734Z,16.69
2018-09-08T07:59:15.135Z,16.74
2018-09-08T08:01:43.518Z,16.79
2018-09-08T08:04:11.916Z,16.84
2018-09-08T08:06:40.296Z,16.92
2018-09-08T08:09:09.564Z,16.96
2018-09-08T08:11:38.938Z,17.00
2018-09-08T08:14:07.321Z,17.07
2018-09-08T08:16:35.906Z,17.12
2018-09-08T08:19:04.299Z,17.17
2018-09-08T08:21:32.822Z,17.23
2018-09-08T08:24:01.218Z,17.29
2018-09-08T08:26:29.603Z,17.36
2018-09-08T08:28:58.014Z,17.44
2018-09-08T08:31:26.390Z,17.49
2018-09-08T08:33:54.778Z,17.56
2018-09-08T08:36:23.151Z,17.62
2018-09-08T08:38:51.559Z,17.67
2018-09-08T08:41:19.951Z,17.73
2018-09-08T08:43:48.342Z,17.80
2018-09-08T08:46:16.712Z,17.86
2018-09-08T08:48:45.102Z,17.92
2018-09-08T08:51:24.767Z,18.00
2018-09-08T08:54:04.433Z,18.06
2018-09-08T08:56:32.802Z,18.05
2018-09-08T08:59:01.284Z,18.20
2018-09-08T09:01:29.662Z,18.29
2018-09-08T09:03:58.082Z,18.37
2018-09-08T09:06:26.449Z,18.43
2018-09-08T09:08:54.822Z,18.51
2018-09-08T09:11:23.417Z,18.59
2018-09-08T09:13:51.781Z,18.66
2018-09-08T09:16:20.178Z,18.73
2018-09-08T09:19:00.109Z,18.80
2018-09-08T09:21:39.626Z,18.87
2018-09-08T09:24:23.912Z,18.93
2018-09-08T09:26:51.859Z,19.02
2018-09-08T09:29:20.702Z,19.09
2018-09-08T09:31:49.090Z,19.15
2018-09-08T09:34:17.623Z,19.21
2018-09-08T09:36:46.005Z,19.30
2018-09-08T09:39:14.394Z,19.37
2018-09-08T09:41:43.298Z,19.43
2018-09-08T09:44:12.171Z,19.45
2018-09-08T09:46:40.774Z,19.48
2018-09-08T09:49:09.146Z,19.52
2018-09-08T09:51:37.539Z,19.59
2018-09-08T09:54:05.914Z,19.65
2018-09-08T09:56:34.302Z,19.75
2018-09-08T09:59:02.670Z,19.84
2018-09-08T10:01:36.397Z,19.92
2018-09-08T10:04:04.817Z,19.99
2018-09-08T10:06:33.257Z,20.05
2018-09-08T10:09:01.608Z,20.08
2018-09-08T10:11:30.004Z,20.12
2018-09-08T10:13:58.383Z,20.14
2018-09-08T10:16:26.783Z,20.17
2018-09-08T10:18:55.155Z,20.21
2018-09-08T10:21:23.574Z,20.23
2018-09-08T10:24:04.348Z,20.25
2018-09-08T10:26:20.412Z,20.32
2018-09-08T10:28:48.758Z,20.37
2018-09-08T10:31:17.183Z,20.42
2018-09-08T10:33:45.550Z,20.45
2018-09-08T10:36:13.975Z,20.48
2018-09-08T10:38:42.550Z,20.43
2018-09-08T10:41:10.930Z,20.40
2018-09-08T10:43:39.295Z,20.41
2018-09-08T10:46:07.727Z,20.42
2018-09-08T10:48:36.103Z,20.41
2018-09-08T10:51:16.894Z,20.41
2018-09-08T10:53:45.267Z,20.48
2018-09-08T10:56:13.658Z,20.53
2018-09-08T10:58:42.023Z,20.57
2018-09-08T11:01:10.501Z,20.58
2018-09-08T11:03:38.946Z,20.58
2018-09-08T11:06:07.415Z,20.60
2018-09-08T11:08:36.030Z,20.62
2018-09-08T11:11:04.578Z,20.62
2018-09-08T11:13:33.121Z,20.63
2018-09-08T11:16:01.500Z,20.73
2018-09-08T11:18:29.906Z,20.82
2018-09-08T11:20:58.502Z,20.92
2018-09-08T11:23:27.091Z,21.02
2018-09-08T11:25:55.955Z,21.15
2018-09-08T11:28:24.522Z,21.22
2018-09-08T11:30:53.077Z,21.24
2018-09-08T11:33:21.622Z,21.24
2018-09-08T11:35:50.059Z,21.27
2018-09-08T11:38:18.598Z,21.33
2018-09-08T11:40:46.976Z,21.35
2018-09-08T11:43:15.483Z,21.35
2018-09-08T11:45:44.036Z,21.34
2018-09-08T11:48:12.610Z,21.39
2018-09-08T11:50:41.005Z,21.40
2018-09-08T11:53:09.562Z,21.48
2018-09-08T11:55:38.185Z,21.50
2018-09-08T11:58:06.590Z,21.54
2018-09-08T12:00:35.063Z,21.56
2018-09-08T12:03:03.684Z,21.62
2018-09-08T12:05:32.448Z,21.71
2018-09-08T12:08:01.201Z,21.76
2018-09-08T12:10:29.542Z,21.81
2018-09-08T12:12:58.221Z,21.94
2018-09-08T12:15:26.714Z,22.03
2018-09-08T12:17:55.232Z,22.09
2018-09-08T12:20:23.699Z,22.13
2018-09-08T12:22:52.294Z,22.24
2018-09-08T12:25:20.966Z,22.26
2018-09-08T12:27:49.959Z,22.32
2018-09-08T12:30:18.481Z,22.41
2018-09-08T12:32:47.382Z,22.49
2018-09-08T12:35:15.918Z,22.49
2018-09-08T12:37:44.327Z,22.47
2018-09-08T12:40:12.975Z,22.44
2018-09-08T12:42:41.688Z,22.42
2018-09-08T12:45:10.058Z,22.41
2018-09-08T12:47:38.546Z,22.48
2018-09-08T12:50:06.938Z,22.53
2018-09-08T12:52:35.330Z,22.64
2018-09-08T12:55:03.694Z,22.76
2018-09-08T12:57:32.077Z,22.83
2018-09-08T13:00:00.437Z,22.91
2018-09-08T13:02:28.826Z,22.96
2018-09-08T13:04:57.212Z,23.03
2018-09-08T13:07:25.597Z,23.04
2018-09-08T13:09:53.961Z,23.05
2018-09-08T13:12:22.326Z,23.05
2018-09-08T13:14:50.727Z,23.08
2018-09-08T13:17:19.099Z,23.13
2018-09-08T13:19:47.487Z,23.15
2018-09-08T13:22:15.875Z,23.11
2018-09-08T13:24:44.373Z,23.10
2018-09-08T13:27:12.831Z,23.14
2018-09-08T13:29:41.218Z,23.15
2018-09-08T13:32:09.599Z,23.13
2018-09-08T13:34:37.986Z,23.15
2018-09-08T13:37:06.369Z,23.16
2018-09-08T13:39:34.784Z,23.14
2018-09-08T13:42:03.771Z,23.14
2018-09-08T13:44:32.162Z,23.09
2018-09-08T13:47:00.558Z,23.01
2018-09-08T13:49:28.945Z,22.92
2018-09-08T13:51:57.322Z,22.85
2018-09-08T13:54:25.711Z,22.81
2018-09-08T13:56:54.078Z,22.82
2018-09-08T13:59:22.471Z,22.85
2018-09-08T14:01:50.837Z,22.89
2018-09-08T14:04:19.273Z,22.93
2018-09-08T14:06:47.826Z,22.95
2018-09-08T14:09:16.330Z,23.01
2018-09-08T14:11:44.704Z,23.07
2018-09-08T14:14:13.299Z,23.09
2018-09-08T14:16:41.675Z,23.08
2018-09-08T14:19:10.061Z,23.08
2018-09-08T14:21:38.447Z,23.02
2018-09-08T14:24:06.874Z,23.02
2018-09-08T14:26:35.254Z,22.97
2018-09-08T14:29:03.641Z,22.89
2018-09-08T14:31:32.012Z,22.84
2018-09-08T14:34:00.406Z,22.80
2018-09-08T14:36:28.775Z,22.76
2018-09-08T14:38:57.174Z,22.69
2018-09-08T14:41:25.531Z,22.62
2018-09-08T14:43:53.990Z,22.61
2018-09-08T14:46:22.660Z,22.57
2018-09-08T14:48:51.050Z,22.57
2018-09-08T14:51:19.414Z,22.61
2018-09-08T14:53:47.807Z,22.64
2018-09-08T14:56:17.178Z,22.69
2018-09-08T14:58:45.564Z,22.74
2018-09-08T15:01:13.926Z,22.82
2018-09-08T15:03:42.383Z,22.86
2018-09-08T15:06:10.758Z,22.88
2018-09-08T15:08:39.163Z,22.89
2018-09-08T15:11:07.566Z,22.90
2018-09-08T15:13:36.003Z,22.88
2018-09-08T15:16:04.426Z,22.84
2018-09-08T15:18:32.789Z,22.80
2018-09-08T15:21:01.214Z,22.74
2018-09-08T15:23:29.587Z,22.67
2018-09-08T15:25:58.062Z,22.62
2018-09-08T15:28:26.842Z,22.62
2018-09-08T15:30:55.276Z,22.63
2018-09-08T15:33:23.647Z,22.62
2018-09-08T15:35:52.039Z,22.62
2018-09-08T15:38:20.409Z,22.61
2018-09-08T15:40:48.795Z,22.57
2018-09-08T15:43:17.169Z,22.53
2018-09-08T15:45:45.644Z,22.49
2018-09-08T15:48:13.974Z,22.44
2018-09-08T15:50:42.404Z,22.39
2018-09-08T15:53:10.778Z,22.30
2018-09-08T15:55:39.175Z,22.23
2018-09-08T15:58:07.553Z,22.16
2018-09-08T16:00:35.970Z,22.12
2018-09-08T16:03:04.340Z,22.08
2018-09-08T16:05:32.739Z,22.03
2018-09-08T16:08:04.358Z,21.99
2018-09-08T16:10:34.886Z,21.96
2018-09-08T16:13:03.466Z,21.93
2018-09-08T16:15:31.856Z,21.91
2018-09-08T16:18:00.217Z,21.88
2018-09-08T16:20:28.597Z,21.84
2018-09-08T16:22:56.989Z,21.77
2018-09-08T16:25:25.384Z,21.70
2018-09-08T16:27:53.754Z,21.64
2018-09-08T16:30:22.150Z,21.57
2018-09-08T16:32:50.526Z,21.51
2018-09-08T16:35:18.943Z,21.41
2018-09-08T16:37:47.339Z,21.33
2018-09-08T16:40:15.744Z,21.30
2018-09-08T16:42:44.113Z,21.29
2018-09-08T16:45:12.504Z,21.30
2018-09-08T16:47:40.976Z,21.34
2018-09-08T16:50:09.429Z,21.50
2018-09-08T16:52:37.857Z,21.62
2018-09-08T16:55:06.394Z,21.72
2018-09-08T16:57:34.766Z,21.80
2018-09-08T17:00:03.167Z,21.79
2018-09-08T17:02:31.542Z,21.75
2018-09-08T17:05:00.017Z,21.66
2018-09-08T17:07:28.342Z,21.58
2018-09-08T17:09:56.729Z,21.46
2018-09-08T17:12:25.094Z,21.34
2018-09-08T17:14:53.496Z,21.24
2018-09-08T17:17:21.855Z,21.14
2018-09-08T17:19:50.222Z,21.05
2018-09-08T17:22:18.629Z,20.96
2018-09-08T17:24:46.998Z,20.86
2018-09-08T17:27:15.421Z,20.77
2018-09-08T17:29:43.789Z,20.67
2018-09-08T17:32:12.186Z,20.57
2018-09-08T17:34:41.223Z,20.48
2018-09-08T17:37:09.609Z,20.40
2018-09-08T17:39:37.970Z,20.32
2018-09-08T17:42:06.367Z,20.24
2018-09-08T17:44:34.777Z,20.18
2018-09-08T17:47:03.260Z,20.12
2018-09-08T17:49:31.641Z,20.07
2018-09-08T17:52:00.050Z,20.01
2018-09-08T17:54:28.422Z,19.97
2018-09-08T17:56:56.813Z,19.94
2018-09-08T17:59:25.180Z,19.88
2018-09-08T18:01:53.586Z,19.84
2018-09-08T18:04:21.978Z,19.78
2018-09-08T18:06:50.449Z,19.73
2018-09-08T18:09:18.823Z,19.67
2018-09-08T18:11:47.276Z,19.62
2018-09-08T18:14:15.622Z,19.57
2018-09-08T18:16:44.018Z,19.52
2018-09-08T18:19:12.390Z,19.46
2018-09-08T18:21:40.797Z,19.40
2018-09-08T18:24:09.359Z,19.35
2018-09-08T18:26:37.758Z,19.31
2018-09-08T18:29:06.135Z,19.26
2018-09-08T18:31:34.530Z,19.21
2018-09-08T18:34:02.915Z,19.18
2018-09-08T18:36:31.316Z,19.14
2018-09-08T18:38:59.685Z,19.10
2018-09-08T18:41:28.142Z,19.01
2018-09-08T18:43:56.470Z,18.94
2018-09-08T18:46:24.862Z,18.86
2018-09-08T18:48:53.235Z,18.81
2018-09-08T18:51:21.635Z,18.72
2018-09-08T18:53:50.109Z,18.66
2018-09-08T18:56:18.427Z,18.60
2018-09-08T18:58:46.815Z,18.53
2018-09-08T19:01:15.201Z,18.49
2018-09-08T19:03:43.570Z,18.41
2018-09-08T19:06:11.982Z,18.33
2018-09-08T19:08:43.126Z,18.25
2018-09-08T19:11:12.203Z,18.19
2018-09-08T19:13:40.587Z,18.10
2018-09-08T19:16:09.274Z,18.00
2018-09-08T19:18:37.784Z,17.90
2018-09-08T19:21:06.462Z,17.80
2018-09-08T19:23:34.863Z,17.70
2018-09-08T19:26:03.239Z,17.63
2018-09-08T19:28:31.625Z,17.56
2018-09-08T19:30:59.991Z,17.47
2018-09-08T19:33:28.377Z,17.40
2018-09-08T19:35:56.913Z,17.33
2018-09-08T19:38:25.302Z,17.27
2018-09-08T19:40:53.673Z,17.22
2018-09-08T19:43:22.063Z,17.19
2018-09-08T19:45:50.438Z,17.16
2018-09-08T19:48:20.286Z,17.13
2018-09-08T19:50:48.678Z,17.08
2018-09-08T19:53:22.439Z,17.03
2018-09-08T19:55:51.135Z,16.98
2018-09-08T19:58:25.950Z,16.95
2018-09-08T20:00:54.536Z,16.94
2018-09-08T20:03:22.946Z,16.93
2018-09-08T20:05:51.321Z,16.92
2018-09-08T20:08:19.718Z,16.91
2018-09-08T20:10:48.099Z,16.92
2018-09-08T20:13:16.494Z,16.91
2018-09-08T20:15:44.858Z,16.93
2018-09-08T20:18:13.250Z,16.96
2018-09-08T20:20:41.670Z,16.97
2018-09-08T20:23:10.100Z,16.98
2018-09-08T20:25:38.469Z,17.00
2018-09-08T20:28:06.863Z,17.00
2018-09-08T20:30:35.229Z,17.01
2018-09-08T20:33:03.616Z,16.99
2018-09-08T20:35:31.986Z,16.98
2018-09-08T20:38:00.383Z,16.97
2018-09-08T20:40:28.754Z,16.94
2018-09-08T20:42:57.147Z,16.93
2018-09-08T20:45:25.520Z,16.92
2018-09-08T20:47:53.968Z,16.90
2018-09-08T20:50:22.344Z,16.89
2018-09-08T20:52:50.807Z,16.87
2018-09-08T20:55:19.175Z,16.83
2018-09-08T20:57:47.572Z,16.80
2018-09-08T21:00:15.943Z,16.78
2018-09-08T21:02:44.426Z,16.75
2018-09-08T21:05:12.790Z,16.73
2018-09-08T21:07:41.275Z,16.71
2018-09-08T21:10:09.618Z,16.70
2018-09-08T21:12:37.981Z,16.69
2018-09-08T21:15:06.600Z,16.68
2018-09-08T21:17:34.971Z,16.68
2018-09-08T21:20:03.393Z,16.67
2018-09-08T21:22:31.787Z,16.67
2018-09-08T21:25:00.239Z,16.65
2018-09-08T21:27:28.605Z,16.64
2018-09-08T21:29:56.998Z,16.65
2018-09-08T21:32:25.374Z,16.63
2018-09-08T21:34:53.767Z,16.64
2018-09-08T21:37:22.133Z,16.64
2018-09-08T21:39:50.534Z,16.62
2018-09-08T21:42:18.908Z,16.60
2018-09-08T21:44:47.290Z,16.57
2018-09-08T21:47:16.667Z,16.53
2018-09-08T21:49:45.118Z,16.52
2018-09-08T21:52:13.484Z,16.50
2018-09-08T21:54:41.898Z,16.49
2018-09-08T21:57:10.846Z,16.47
2018-09-08T21:59:39.246Z,16.42
2018-09-08T22:02:07.606Z,16.38
2018-09-08T22:04:35.994Z,16.35
2018-09-08T22:07:04.366Z,16.31
2018-09-08T22:09:32.767Z,16.27
2018-09-08T22:12:01.147Z,16.24
2018-09-08T22:14:29.539Z,16.20
2018-09-08T22:16:57.898Z,16.17
2018-09-08T22:19:26.298Z,16.13
2018-09-08T22:21:54.706Z,16.08
2018-09-08T22:24:23.097Z,16.03
2018-09-08T22:26:51.578Z,15.97
2018-09-08T22:29:19.981Z,15.94
2018-09-08T22:31:48.354Z,15.90
2018-09-08T22:34:16.751Z,15.87
2018-09-08T22:36:45.119Z,15.84
2018-09-08T22:39:13.509Z,15.79
2018-09-08T22:41:41.894Z,15.75
2018-09-08T22:44:10.282Z,15.70
2018-09-08T22:46:38.650Z,15.65
2018-09-08T22:49:07.029Z,15.59
2018-09-08T22:51:35.416Z,15.52
2018-09-08T22:54:03.801Z,15.48
2018-09-08T22:56:32.176Z,15.44
2018-09-08T22:59:00.582Z,15.43
2018-09-08T23:01:28.993Z,15.42
2018-09-08T23:03:57.383Z,15.42
2018-09-08T23:06:25.756Z,15.44
2018-09-08T23:08:54.130Z,15.47
2018-09-08T23:11:22.546Z,15.50
2018-09-08T23:13:50.910Z,15.54
2018-09-08T23:16:19.299Z,15.57
2018-09-08T23:18:47.666Z,15.62
2018-09-08T23:21:16.066Z,15.66
2018-09-08T23:23:44.437Z,15.68
2018-09-08T23:26:12.835Z,15.72
2018-09-08T23:28:41.206Z,15.75
2018-09-08T23:31:09.593Z,15.76
2018-09-08T23:33:37.957Z,15.80
2018-09-08T23:36:06.447Z,15.84
2018-09-08T23:38:34.833Z,15.85
2018-09-08T23:41:03.213Z,15.87
2018-09-08T23:43:31.581Z,15.88
2018-09-08T23:45:59.963Z,15.89
2018-09-08T23:48:28.333Z,15.91
2018-09-08T23:50:56.727Z,15.92
2018-09-08T23:53:25.089Z,15.91
2018-09-08T23:55:53.477Z,15.91
2018-09-08T23:58:21.838Z,15.89
